createdAt,value
2018-07-05T00:00:41.740Z,98034.50
2018-07-05T00:03:27.915Z,98027.18
2018-07-05T00:06:14.017Z,98017.80
2018-07-05T00:09:00.111Z,98021.42
2018-07-05T00:11:46.171Z,98020.22
2018-07-05T00:14:32.855Z,98017.06
2018-07-05T00:17:19.173Z,98020.73
2018-07-05T00:20:05.469Z,98031.50
2018-07-05T00:22:45.700Z,98036.84
2018-07-05T00:25:31.848Z,98033.05
2018-07-05T00:28:18.024Z,98038.89
2018-07-05T00:31:04.236Z,98034.37
2018-07-05T00:33:50.878Z,98040.17
2018-07-05T00:36:37.256Z,98037.64
2018-07-05T00:39:23.622Z,98035.98
2018-07-05T00:42:09.857Z,98037.52
2018-07-05T00:44:56.221Z,98034.80
2018-07-05T00:47:42.461Z,98038.38
2018-07-05T00:50:29.207Z,98041.86
2018-07-05T00:53:15.457Z,98034.53
2018-07-05T00:56:01.705Z,98027.03
2018-07-05T00:58:47.949Z,98029.76
2018-07-05T01:01:34.245Z,98027.33
2018-07-05T01:04:20.454Z,98030.81
2018-07-05T01:07:06.561Z,98041.43
2018-07-05T01:09:53.075Z,98038.33
2018-07-05T01:12:39.306Z,98032.33
2018-07-05T01:15:25.543Z,98034.83
2018-07-05T01:18:11.619Z,98035.63
2018-07-05T01:20:58.337Z,98036.84
2018-07-05T01:23:44.605Z,98033.31
2018-07-05T01:26:31.036Z,98037.22
2018-07-05T01:29:17.173Z,98031.56
2018-07-05T01:32:03.344Z,98030.52
2018-07-05T01:34:49.468Z,98033.66
2018-07-05T01:37:35.781Z,98036.91
2018-07-05T01:40:22.061Z,98040.85
2018-07-05T01:43:08.253Z,98049.02
2018-07-05T01:45:54.401Z,98042.64
2018-07-05T01:48:34.705Z,98046.05
2018-07-05T01:51:20.844Z,98044.69
2018-07-05T01:54:06.996Z,98052.91
2018-07-05T01:56:53.203Z,98056.36
2018-07-05T01:59:39.330Z,98061.12
2018-07-05T02:02:25.557Z,98054.80
2018-07-05T02:05:12.156Z,98055.39
2018-07-05T02:07:58.580Z,98049.36
2018-07-05T02:10:44.818Z,98045.27
2018-07-05T02:13:31.266Z,98042.87
2018-07-05T02:16:17.441Z,98045.77
2018-07-05T02:19:03.610Z,98044.91
2018-07-05T02:21:50.313Z,98051.54
2018-07-05T02:24:36.667Z,98047.79
2018-07-05T02:27:23.029Z,98051.75
2018-07-05T02:30:09.426Z,98046.31
2018-07-05T02:32:55.763Z,98046.92
2018-07-05T02:35:41.979Z,98045.16
2018-07-05T02:38:28.152Z,98044.43
2018-07-05T02:41:14.223Z,98043.68
2018-07-05T02:44:00.395Z,98039.00
2018-07-05T02:46:40.556Z,98036.16
2018-07-05T02:49:26.799Z,98041.08
2018-07-05T02:52:13.047Z,98040.17
2018-07-05T02:54:59.363Z,98027.28
2018-07-05T02:57:45.674Z,98018.80
2018-07-05T03:00:31.980Z,98014.63
2018-07-05T03:03:18.202Z,98012.05
2018-07-05T03:06:05.176Z,98016.91
2018-07-05T03:08:51.349Z,98019.81
2018-07-05T03:11:37.633Z,98021.88
2018-07-05T03:14:24.004Z,98018.23
2018-07-05T03:17:10.211Z,98021.73
2018-07-05T03:19:56.429Z,98019.45
2018-07-05T03:22:42.639Z,98019.25
2018-07-05T03:25:28.837Z,98014.33
2018-07-05T03:28:15.051Z,98011.45
2018-07-05T03:31:01.156Z,98014.98
2018-07-05T03:33:41.487Z,98016.30
2018-07-05T03:36:27.987Z,98013.93
2018-07-05T03:39:14.833Z,98014.98
2018-07-05T03:42:00.899Z,98012.05
2018-07-05T03:44:47.226Z,98014.53
2018-07-05T03:47:27.493Z,98013.00
2018-07-05T03:50:13.785Z,98018.28
2018-07-05T03:52:54.099Z,98015.70
2018-07-05T03:55:40.846Z,98019.21
2018-07-05T03:58:27.093Z,98007.33
2018-07-05T04:01:13.405Z,98007.33
2018-07-05T04:03:59.733Z,98003.22
2018-07-05T04:06:46.476Z,98006.22
2018-07-05T04:09:32.657Z,98004.45
2018-07-05T04:12:18.814Z,97997.63
2018-07-05T04:15:04.966Z,97998.71
2018-07-05T04:17:45.172Z,98004.34
2018-07-05T04:20:31.464Z,98011.24
2018-07-05T04:23:17.726Z,98008.91
2018-07-05T04:26:03.871Z,98003.68
2018-07-05T04:28:51.173Z,98006.41
2018-07-05T04:31:37.533Z,98006.48
2018-07-05T04:34:23.704Z,98009.19
2018-07-05T04:37:09.784Z,98007.41
2018-07-05T04:39:55.944Z,98009.81
2018-07-05T04:42:42.137Z,98012.02
2018-07-05T04:45:28.303Z,98009.44
2018-07-05T04:48:14.477Z,98012.64
2018-07-05T04:51:00.699Z,98014.26
2018-07-05T04:53:46.937Z,98009.59
2018-07-05T04:56:33.212Z,98012.59
2018-07-05T04:59:19.375Z,98014.31
2018-07-05T05:02:05.525Z,98024.37
2018-07-05T05:04:51.752Z,98028.03
2018-07-05T05:07:38.107Z,98033.91
2018-07-05T05:10:24.387Z,98040.22
2018-07-05T05:13:10.669Z,98046.61
2018-07-05T05:15:57.489Z,98052.45
2018-07-05T05:18:43.784Z,98058.84
2018-07-05T05:21:30.041Z,98056.20
2018-07-05T05:24:10.250Z,98058.84
2018-07-05T05:26:56.495Z,98063.08
2018-07-05T05:29:42.652Z,98064.39
2018-07-05T05:32:28.792Z,98062.50
2018-07-05T05:35:15.390Z,98064.98
2018-07-05T05:38:01.584Z,98068.71
2018-07-05T05:40:47.836Z,98064.23
2018-07-05T05:43:33.936Z,98064.53
2018-07-05T05:46:20.122Z,98060.11
2018-07-05T05:49:06.373Z,98054.08
2018-07-05T05:51:52.609Z,98051.89
2018-07-05T05:54:39.000Z,98057.77
2018-07-05T05:57:25.312Z,98051.27
2018-07-05T06:00:12.559Z,98060.95
2018-07-05T06:02:58.933Z,98056.58
2018-07-05T06:05:44.950Z,98050.89
2018-07-05T06:08:31.290Z,98053.37
2018-07-05T06:11:17.680Z,98043.91
2018-07-05T06:14:04.054Z,98043.14
2018-07-05T06:16:50.231Z,98047.63
2018-07-05T06:19:36.388Z,98060.03
2018-07-05T06:22:22.583Z,98060.78
2018-07-05T06:25:08.747Z,98070.39
2018-07-05T06:27:54.794Z,98076.83
2018-07-05T06:30:35.013Z,98083.27
2018-07-05T06:33:21.142Z,98084.08
2018-07-05T06:36:07.313Z,98087.85
2018-07-05T06:38:53.542Z,98084.07
2018-07-05T06:41:39.716Z,98095.29
2018-07-05T06:44:26.022Z,98097.07
2018-07-05T06:47:12.226Z,98102.46
2018-07-05T06:49:58.476Z,98101.14
2018-07-05T06:52:44.625Z,98095.05
2018-07-05T06:55:30.901Z,98101.09
2018-07-05T06:58:17.045Z,98096.66
2018-07-05T07:01:03.268Z,98097.98
2018-07-05T07:03:49.574Z,98100.16
2018-07-05T07:06:35.756Z,98106.89
2018-07-05T07:09:21.818Z,98108.82
2018-07-05T07:12:08.063Z,98111.30
2018-07-05T07:14:54.400Z,98108.78
2018-07-05T07:17:40.502Z,98107.16
2018-07-05T07:20:26.834Z,98111.01
2018-07-05T07:23:12.884Z,98096.29
2018-07-05T07:25:59.059Z,98093.47
2018-07-05T07:28:45.129Z,98090.06
2018-07-05T07:31:31.208Z,98090.11
2018-07-05T07:34:11.340Z,98090.74
2018-07-05T07:36:57.460Z,98079.65
2018-07-05T07:39:43.498Z,98076.83
2018-07-05T07:42:11.249Z,98071.88
2018-07-05T07:44:38.981Z,98071.40
2018-07-05T07:47:06.768Z,98071.48
2018-07-05T07:49:34.513Z,98068.14
2018-07-05T07:52:02.258Z,98060.25
2018-07-05T07:54:30.032Z,98056.61
2018-07-05T07:56:57.772Z,98054.77
2018-07-05T07:59:25.590Z,98050.58
2018-07-05T08:01:53.334Z,98051.31
2018-07-05T08:04:21.105Z,98062.83
2018-07-05T08:06:48.881Z,98059.70
2018-07-05T08:09:16.626Z,98061.59
2018-07-05T08:11:44.409Z,98061.66
2018-07-05T08:14:12.171Z,98060.89
2018-07-05T08:16:39.911Z,98060.41
2018-07-05T08:19:07.677Z,98054.38
2018-07-05T08:21:35.457Z,98059.20
2018-07-05T08:24:03.259Z,98058.20
2018-07-05T08:26:31.022Z,98054.85
2018-07-05T08:28:58.767Z,98061.29
2018-07-05T08:31:26.600Z,98052.13
2018-07-05T08:33:54.291Z,98052.27
2018-07-05T08:36:22.070Z,98054.80
2018-07-05T08:38:49.824Z,98052.70
2018-07-05T08:41:17.557Z,98048.66
2018-07-05T08:43:45.318Z,98049.34
2018-07-05T08:46:13.100Z,98049.47
2018-07-05T08:48:40.910Z,98052.16
2018-07-05T08:51:08.661Z,98049.87
2018-07-05T08:53:36.409Z,98051.28
2018-07-05T08:56:04.190Z,98054.58
2018-07-05T08:58:31.953Z,98051.54
2018-07-05T09:00:59.696Z,98049.53
2018-07-05T09:03:27.432Z,98046.45
2018-07-05T09:05:55.175Z,98051.55
2018-07-05T09:08:22.938Z,98050.86
2018-07-05T09:10:50.699Z,98052.24
2018-07-05T09:13:18.479Z,98051.30
2018-07-05T09:15:46.244Z,98048.69
2018-07-05T09:18:14.035Z,98046.06
2018-07-05T09:20:41.814Z,98046.88
2018-07-05T09:23:09.607Z,98048.80
2018-07-05T09:25:37.362Z,98053.84
2018-07-05T09:28:05.097Z,98059.73
2018-07-05T09:30:32.861Z,98060.05
2018-07-05T09:33:00.621Z,98061.87
2018-07-05T09:35:28.497Z,98065.09
2018-07-05T09:37:56.289Z,98063.02
2018-07-05T09:40:24.076Z,98072.84
2018-07-05T09:42:51.840Z,98070.80
2018-07-05T09:45:19.640Z,98079.30
2018-07-05T09:47:47.509Z,98076.12
2018-07-05T09:50:15.317Z,98076.62
2018-07-05T09:52:43.157Z,98074.80
2018-07-05T09:55:10.903Z,98079.17
2018-07-05T09:57:38.688Z,98084.74
2018-07-05T10:00:06.491Z,98084.27
2018-07-05T10:02:34.257Z,98089.92
2018-07-05T10:05:02.007Z,98092.31
2018-07-05T10:07:29.753Z,98090.52
2018-07-05T10:09:57.531Z,98090.23
2018-07-05T10:12:25.281Z,98096.14
2018-07-05T10:14:53.055Z,98094.55
2018-07-05T10:17:20.888Z,98097.23
2018-07-05T10:19:48.994Z,98103.64
2018-07-05T10:22:16.730Z,98109.55
2018-07-05T10:24:44.486Z,98100.50
2018-07-05T10:27:12.746Z,98107.14
2018-07-05T10:29:58.817Z,98103.33
2018-07-05T10:32:45.090Z,98110.30
2018-07-05T10:35:12.844Z,98109.48
2018-07-05T10:37:40.642Z,98119.80
2018-07-05T10:40:26.847Z,98123.53
2018-07-05T10:43:13.210Z,98119.56
2018-07-05T10:45:59.975Z,98126.02
2018-07-05T10:48:46.235Z,98126.50
2018-07-05T10:51:32.527Z,98129.20
2018-07-05T10:54:18.990Z,98130.81
2018-07-05T10:56:59.265Z,98130.89
2018-07-05T10:59:45.531Z,98137.09
2018-07-05T11:02:31.730Z,98136.80
2018-07-05T11:05:17.892Z,98137.42
2018-07-05T11:08:03.973Z,98141.95
2018-07-05T11:10:50.190Z,98140.36
2018-07-05T11:13:36.291Z,98135.92
2018-07-05T11:16:22.456Z,98143.00
2018-07-05T11:19:08.590Z,98137.92
2018-07-05T11:21:55.312Z,98139.36
2018-07-05T11:24:41.499Z,98147.36
2018-07-05T11:27:27.733Z,98140.92
2018-07-05T11:30:13.856Z,98146.01
2018-07-05T11:33:00.079Z,98147.57
2018-07-05T11:35:46.280Z,98142.02
2018-07-05T11:38:32.472Z,98145.77
2018-07-05T11:41:18.697Z,98140.36
2018-07-05T11:44:05.388Z,98144.15
2018-07-05T11:46:51.580Z,98143.86
2018-07-05T11:49:31.760Z,98139.89
2018-07-05T11:52:18.084Z,98138.14
2018-07-05T11:55:04.268Z,98134.73
2018-07-05T11:57:50.440Z,98138.52
2018-07-05T12:00:36.599Z,98135.05
2018-07-05T12:03:22.775Z,98133.81
2018-07-05T12:06:08.959Z,98137.59
2018-07-05T12:08:55.125Z,98131.73
2018-07-05T12:11:41.280Z,98133.84
2018-07-05T12:14:27.449Z,98123.49
2018-07-05T12:17:13.626Z,98126.50
2018-07-05T12:19:59.846Z,98128.78
2018-07-05T12:22:46.035Z,98127.89
2018-07-05T12:25:32.202Z,98120.95
2018-07-05T12:28:18.317Z,98116.49
2018-07-05T12:31:04.552Z,98125.02
2018-07-05T12:33:44.795Z,98125.77
2018-07-05T12:36:31.180Z,98118.95
2018-07-05T12:39:17.393Z,98112.89
2018-07-05T12:42:03.472Z,98119.53
2018-07-05T12:44:49.638Z,98118.88
2018-07-05T12:47:35.641Z,98118.37
2018-07-05T12:50:21.913Z,98120.27
2018-07-05T12:53:08.220Z,98118.45
2018-07-05T12:55:54.597Z,98122.73
2018-07-05T12:58:40.977Z,98117.25
2018-07-05T13:01:27.336Z,98110.89
2018-07-05T13:04:13.449Z,98111.75
2018-07-05T13:06:59.571Z,98121.02
2018-07-05T13:09:45.848Z,98119.44
2018-07-05T13:12:31.976Z,98107.30
2018-07-05T13:15:18.218Z,98107.39
2018-07-05T13:18:04.432Z,98109.30
2018-07-05T13:20:50.700Z,98099.16
2018-07-05T13:23:37.033Z,98102.11
2018-07-05T13:26:23.338Z,98096.30
2018-07-05T13:29:09.625Z,98093.92
2018-07-05T13:31:55.775Z,98084.32
2018-07-05T13:34:41.921Z,98087.27
2018-07-05T13:37:28.065Z,98093.47
2018-07-05T13:40:14.305Z,98091.09
2018-07-05T13:43:00.565Z,98093.01
2018-07-05T13:45:46.793Z,98099.14
2018-07-05T13:48:33.166Z,98096.78
2018-07-05T13:51:19.453Z,98099.42
2018-07-05T13:54:05.728Z,98094.36
2018-07-05T13:56:51.959Z,98098.37
2018-07-05T13:59:38.109Z,98095.92
2018-07-05T14:02:24.295Z,98090.34
2018-07-05T14:05:10.436Z,98090.88
2018-07-05T14:07:56.624Z,98087.89
2018-07-05T14:10:42.811Z,98088.42
2018-07-05T14:13:29.103Z,98088.67
2018-07-05T14:16:15.111Z,98079.63
2018-07-05T14:19:01.238Z,98076.12
2018-07-05T14:21:47.488Z,98083.87
2018-07-05T14:24:33.716Z,98080.64
2018-07-05T14:27:19.767Z,98089.20
2018-07-05T14:30:05.899Z,98090.81
2018-07-05T14:32:52.446Z,98090.25
2018-07-05T14:35:38.559Z,98092.88
2018-07-05T14:38:18.789Z,98091.30
2018-07-05T14:41:04.843Z,98098.77
2018-07-05T14:43:50.975Z,98106.23
2018-07-05T14:46:37.592Z,98108.33
2018-07-05T14:49:23.785Z,98104.34
2018-07-05T14:52:10.056Z,98110.44
2018-07-05T14:54:56.316Z,98105.91
2018-07-05T14:57:42.505Z,98103.77
2018-07-05T15:00:28.728Z,98115.44
2018-07-05T15:03:14.847Z,98112.76
2018-07-05T15:06:01.068Z,98114.38
2018-07-05T15:08:47.257Z,98108.97
2018-07-05T15:11:33.452Z,98104.11
2018-07-05T15:14:19.798Z,98097.70
2018-07-05T15:17:00.005Z,98095.31
2018-07-05T15:19:46.237Z,98092.65
2018-07-05T15:22:32.310Z,98097.70
2018-07-05T15:25:18.371Z,98101.98
2018-07-05T15:28:04.494Z,98104.36
2018-07-05T15:30:50.784Z,98106.77
2018-07-05T15:33:36.920Z,98109.45
2018-07-05T15:36:23.148Z,98108.41
2018-07-05T15:39:09.359Z,98108.41
2018-07-05T15:41:55.568Z,98108.68
2018-07-05T15:44:41.800Z,98107.39
2018-07-05T15:47:27.895Z,98106.34
2018-07-05T15:50:14.162Z,98107.72
2018-07-05T15:53:00.528Z,98109.86
2018-07-05T15:55:46.827Z,98109.06
2018-07-05T15:58:33.202Z,98111.72
2018-07-05T16:01:19.775Z,98110.39
2018-07-05T16:04:06.039Z,98112.29
2018-07-05T16:06:52.283Z,98104.30
2018-07-05T16:09:41.732Z,98106.72
2018-07-05T16:12:28.081Z,98105.92
2018-07-05T16:15:14.300Z,98100.87
2018-07-05T16:18:00.385Z,98099.78
2018-07-05T16:20:46.658Z,98099.22
2018-07-05T16:23:32.906Z,98098.97
2018-07-05T16:26:13.105Z,98101.91
2018-07-05T16:28:59.213Z,98099.78
2018-07-05T16:31:45.290Z,98098.73
2018-07-05T16:34:31.410Z,98093.64
2018-07-05T16:37:17.602Z,98094.20
2018-07-05T16:40:03.827Z,98091.83
2018-07-05T16:42:50.026Z,98085.73
2018-07-05T16:45:36.161Z,98083.34
2018-07-05T16:48:22.401Z,98087.06
2018-07-05T16:51:08.501Z,98079.09
2018-07-05T16:53:54.622Z,98081.20
2018-07-05T16:56:41.302Z,98084.67
2018-07-05T16:59:27.448Z,98082.01
2018-07-05T17:02:13.675Z,98083.62
2018-07-05T17:04:59.842Z,98086.00
2018-07-05T17:07:46.094Z,98084.42
2018-07-05T17:10:32.106Z,98081.48
2018-07-05T17:13:18.326Z,98082.81
2018-07-05T17:15:58.568Z,98077.48
2018-07-05T17:18:44.835Z,98079.06
2018-07-05T17:21:31.041Z,98075.06
2018-07-05T17:24:17.716Z,98074.54
2018-07-05T17:27:03.851Z,98081.20
2018-07-05T17:29:50.071Z,98080.11
2018-07-05T17:32:36.406Z,98069.18
2018-07-05T17:35:22.605Z,98071.04
2018-07-05T17:38:08.815Z,98073.17
2018-07-05T17:40:55.020Z,98072.65
2018-07-05T17:43:41.171Z,98080.64
2018-07-05T17:46:27.355Z,98081.41
2018-07-05T17:49:13.555Z,98088.59
2018-07-05T17:51:59.645Z,98091.54
2018-07-05T17:54:45.736Z,98095.02
2018-07-05T17:57:31.882Z,98094.45
2018-07-05T18:00:18.163Z,98090.73
2018-07-05T18:03:04.433Z,98097.36
2018-07-05T18:05:50.767Z,98094.41
2018-07-05T18:08:36.964Z,98094.97
2018-07-05T18:11:23.112Z,98097.88
2018-07-05T18:14:09.230Z,98101.05
2018-07-05T18:16:55.488Z,98099.97
2018-07-05T18:19:41.769Z,98096.49
2018-07-05T18:22:28.029Z,98102.27
2018-07-05T18:25:15.005Z,98097.70
2018-07-05T18:28:01.360Z,98100.06
2018-07-05T18:30:47.994Z,98097.06
2018-07-05T18:33:35.101Z,98102.90
2018-07-05T18:36:21.295Z,98100.17
2018-07-05T18:39:07.479Z,98102.00
2018-07-05T18:41:53.702Z,98101.13
2018-07-05T18:44:39.901Z,98101.82
2018-07-05T18:47:26.067Z,98107.41
2018-07-05T18:50:12.299Z,98106.83
2018-07-05T18:52:58.506Z,98111.81
2018-07-05T18:55:44.786Z,98112.27
2018-07-05T18:58:30.951Z,98111.72
2018-07-05T19:01:17.113Z,98113.81
2018-07-05T19:04:03.306Z,98116.15
2018-07-05T19:06:49.381Z,98119.25
2018-07-05T19:09:29.462Z,98118.42
2018-07-05T19:12:15.729Z,98123.96
2018-07-05T19:15:01.902Z,98132.19
2018-07-05T19:17:48.187Z,98135.58
2018-07-05T19:20:34.433Z,98148.06
2018-07-05T19:23:20.542Z,98148.02
2018-07-05T19:26:06.800Z,98142.92
2018-07-05T19:28:52.941Z,98148.56
2018-07-05T19:31:39.046Z,98156.30
2018-07-05T19:34:25.488Z,98160.02
2018-07-05T19:37:05.626Z,98160.79
2018-07-05T19:39:51.811Z,98168.16
2018-07-05T19:42:38.110Z,98171.02
2018-07-05T19:45:24.323Z,98177.58
2018-07-05T19:48:10.517Z,98175.55
2018-07-05T19:50:56.705Z,98183.22
2018-07-05T19:53:42.957Z,98182.19
2018-07-05T19:56:29.200Z,98184.87
2018-07-05T19:59:09.469Z,98189.14
2018-07-05T20:01:55.765Z,98190.12
2018-07-05T20:04:41.949Z,98186.63
2018-07-05T20:07:28.221Z,98187.16
2018-07-05T20:10:14.372Z,98189.00
2018-07-05T20:13:00.593Z,98189.14
2018-07-05T20:15:46.793Z,98191.80
2018-07-05T20:18:32.891Z,98197.66
2018-07-05T20:21:19.088Z,98199.22
2018-07-05T20:23:59.403Z,98203.17
2018-07-05T20:26:45.791Z,98203.66
2018-07-05T20:29:34.058Z,98208.97
2018-07-05T20:32:20.271Z,98204.70
2018-07-05T20:35:06.394Z,98211.30
2018-07-05T20:37:52.592Z,98216.38
2018-07-05T20:40:38.860Z,98213.41
2018-07-05T20:43:25.027Z,98208.53
2018-07-05T20:46:11.699Z,98213.58
2018-07-05T20:48:58.112Z,98217.81
2018-07-05T20:51:44.410Z,98215.45
2018-07-05T20:54:30.492Z,98219.95
2018-07-05T20:57:16.647Z,98215.45
2018-07-05T21:00:02.892Z,98213.84
2018-07-05T21:02:49.550Z,98218.02
2018-07-05T21:05:35.713Z,98221.12
2018-07-05T21:08:21.832Z,98225.91
2018-07-05T21:11:02.128Z,98226.98
2018-07-05T21:13:42.446Z,98216.63
2018-07-05T21:16:29.306Z,98229.64
2018-07-05T21:19:16.039Z,98233.39
2018-07-05T21:22:02.062Z,98233.39
2018-07-05T21:24:42.397Z,98233.09
2018-07-05T21:27:29.225Z,98241.35
2018-07-05T21:30:15.541Z,98240.19
2018-07-05T21:33:01.723Z,98243.13
2018-07-05T21:35:48.131Z,98243.36
2018-07-05T21:38:28.458Z,98246.49
2018-07-05T21:41:14.658Z,98248.11
2018-07-05T21:44:01.333Z,98244.68
2018-07-05T21:46:47.726Z,98247.05
2018-07-05T21:49:34.034Z,98241.73
2018-07-05T21:52:20.183Z,98244.13
2018-07-05T21:55:06.307Z,98247.30
2018-07-05T21:57:46.543Z,98246.20
2018-07-05T22:00:32.651Z,98253.88
2018-07-05T22:03:18.753Z,98248.78
2018-07-05T22:05:58.996Z,98258.08
2018-07-05T22:08:45.226Z,98251.63
2018-07-05T22:11:31.585Z,98258.78
2018-07-05T22:14:17.826Z,98264.13
2018-07-05T22:17:09.232Z,98263.05
2018-07-05T22:20:00.803Z,98257.13
2018-07-05T22:22:52.426Z,98261.00
2018-07-05T22:25:43.895Z,98260.81
2018-07-05T22:28:35.438Z,98261.07
2018-07-05T22:31:21.120Z,98263.53
2018-07-05T22:34:07.400Z,98259.74
2018-07-05T22:36:53.547Z,98257.09
2018-07-05T22:39:39.794Z,98269.25
2018-07-05T22:42:25.942Z,98266.56
2018-07-05T22:45:12.240Z,98273.42
2018-07-05T22:47:59.082Z,98276.66
2018-07-05T22:50:45.861Z,98275.84
2018-07-05T22:53:32.024Z,98273.02
2018-07-05T22:56:18.199Z,98275.78
2018-07-05T22:59:04.393Z,98278.22
2018-07-05T23:01:44.697Z,98274.83
2018-07-05T23:04:31.041Z,98275.38
2018-07-05T23:07:17.698Z,98274.34
2018-07-05T23:10:03.931Z,98276.67
2018-07-05T23:12:51.067Z,98271.14
2018-07-05T23:15:37.212Z,98271.66
2018-07-05T23:18:23.569Z,98272.55
2018-07-05T23:21:09.764Z,98273.36
2018-07-05T23:23:55.904Z,98272.88
2018-07-05T23:26:41.950Z,98273.94
2018-07-05T23:29:28.222Z,98262.78
2018-07-05T23:32:14.440Z,98269.70
2018-07-05T23:35:00.681Z,98270.52
2018-07-05T23:37:46.809Z,98270.63
2018-07-05T23:40:33.060Z,98266.35
2018-07-05T23:43:19.183Z,98266.87
2018-07-05T23:46:05.292Z,98272.94
2018-07-05T23:48:51.644Z,98270.00
2018-07-05T23:51:37.780Z,98272.36
2018-07-05T23:54:23.912Z,98271.28
2018-07-05T23:57:10.241Z,98276.04
2018-07-05T23:59:56.325Z,98272.06
